createdAt,value
2019-03-23T00:01:45.630Z,77.80
2019-03-23T00:12:50.305Z,78.30
2019-03-23T00:21:49.004Z,79.00
2019-03-23T00:24:29.843Z,79.10
2019-03-23T00:27:08.754Z,79.10
2019-03-23T00:29:45.872Z,79.60
2019-03-23T00:32:30.418Z,79.50
2019-03-23T00:38:06.873Z,80.80
2019-03-23T00:40:48.520Z,81.10
2019-03-23T00:43:19.915Z,81.50
2019-03-23T00:45:52.766Z,82.00
2019-03-23T00:48:35.170Z,82.60
2019-03-23T00:51:17.293Z,83.20
2019-03-23T00:53:49.568Z,83.80
2019-03-23T00:56:29.598Z,83.90
2019-03-23T00:59:05.748Z,84.20
2019-03-23T01:01:42.170Z,84.30
2019-03-23T01:04:16.176Z,84.40
2019-03-23T01:06:52.526Z,84.70
2019-03-23T01:09:36.822Z,84.80
2019-03-23T01:12:07.720Z,85.10
2019-03-23T01:14:47.726Z,85.50
2019-03-23T01:17:21.042Z,85.80
2019-03-23T01:19:52.510Z,86.40
2019-03-23T01:22:30.550Z,86.60
2019-03-23T01:25:00.333Z,87.40
2019-03-23T01:27:31.155Z,87.50
2019-03-23T01:30:04.698Z,87.90
2019-03-23T01:32:37.767Z,88.70
2019-03-23T01:35:09.064Z,88.90
2019-03-23T01:40:22.656Z,89.50
2019-03-23T01:42:57.043Z,89.80
2019-03-23T01:45:32.648Z,89.90
2019-03-23T01:48:08.033Z,90.00
2019-03-23T01:50:39.871Z,90.10
2019-03-23T01:53:15.106Z,90.10
2019-03-23T01:55:54.556Z,90.10
2019-03-23T01:58:29.584Z,90.20
2019-03-23T02:03:52.351Z,90.70
2019-03-23T02:06:23.430Z,91.10
2019-03-23T02:08:54.758Z,91.30
2019-03-23T02:11:24.780Z,91.90
2019-03-23T02:13:57.294Z,92.90
2019-03-23T02:16:32.890Z,94.50
2019-03-23T02:19:03.750Z,95.00
2019-03-23T02:21:44.137Z,96.20
2019-03-23T02:24:18.496Z,96.50
2019-03-23T02:26:54.669Z,97.20
2019-03-23T02:32:33.342Z,95.40
2019-03-23T02:35:12.741Z,93.80
2019-03-23T02:37:55.209Z,92.70
2019-03-23T02:40:26.227Z,92.90
2019-03-23T02:45:52.681Z,93.80
2019-03-23T02:48:22.810Z,94.10
2019-03-23T02:50:58.824Z,94.50
2019-03-23T02:53:38.830Z,94.80
2019-03-23T02:56:12.023Z,95.20
2019-03-23T02:58:48.171Z,95.70
2019-03-23T03:01:25.536Z,96.10
2019-03-23T03:04:08.837Z,96.80
2019-03-23T03:06:45.996Z,97.40
2019-03-23T03:09:18.194Z,97.80
2019-03-23T03:11:53.096Z,97.70
2019-03-23T03:14:28.217Z,97.90
2019-03-23T03:20:00.810Z,99.90
2019-03-23T03:22:54.402Z,99.90
2019-03-23T03:25:28.852Z,99.90
2019-03-23T03:28:10.767Z,99.90
2019-03-23T03:30:49.844Z,99.90
2019-03-23T03:33:27.756Z,99.90
2019-03-23T03:36:03.011Z,99.90
2019-03-23T03:38:44.102Z,99.90
2019-03-23T03:41:19.208Z,99.90
2019-03-23T03:43:57.868Z,99.90
2019-03-23T03:46:30.539Z,99.90
2019-03-23T03:49:12.674Z,99.90
2019-03-23T03:51:42.970Z,99.90
2019-03-23T03:54:16.241Z,99.90
2019-03-23T03:56:48.933Z,99.90
2019-03-23T03:59:22.802Z,99.90
2019-03-23T04:01:54.180Z,99.90
2019-03-23T04:04:26.419Z,99.90
2019-03-23T04:07:00.521Z,99.90
2019-03-23T04:09:42.417Z,99.90
2019-03-23T04:12:12.376Z,99.90
2019-03-23T04:14:43.109Z,99.90
2019-03-23T04:17:16.639Z,99.90
2019-03-23T04:19:59.231Z,99.90
2019-03-23T04:22:33.111Z,99.90
2019-03-23T04:25:09.422Z,99.90
2019-03-23T04:27:49.748Z,99.90
2019-03-23T04:30:22.959Z,99.90
2019-03-23T04:32:54.512Z,99.90
2019-03-23T04:35:26.170Z,99.90
2019-03-23T04:37:58.019Z,99.90
2019-03-23T04:40:39.511Z,99.90
2019-03-23T04:43:10.905Z,99.90
2019-03-23T04:45:43.338Z,99.90
2019-03-23T04:48:17.812Z,99.90
2019-03-23T04:50:51.444Z,99.90
2019-03-23T04:53:23.113Z,99.90
2019-03-23T04:56:06.574Z,99.90
2019-03-23T04:58:39.592Z,99.90
2019-03-23T05:01:12.600Z,99.90
2019-03-23T05:03:45.125Z,99.90
2019-03-23T05:06:18.082Z,99.90
2019-03-23T05:08:50.586Z,99.90
2019-03-23T05:11:27.682Z,99.90
2019-03-23T05:14:00.896Z,99.90
2019-03-23T05:16:30.973Z,99.90
2019-03-23T05:19:04.654Z,99.90
2019-03-23T05:21:35.150Z,99.90
2019-03-23T05:24:06.841Z,99.90
2019-03-23T05:26:47.094Z,99.90
2019-03-23T05:29:21.312Z,99.90
2019-03-23T05:37:45.382Z,99.90
2019-03-23T05:40:27.890Z,99.90
2019-03-23T05:43:09.524Z,99.90
2019-03-23T05:45:49.107Z,99.90
2019-03-23T05:48:25.488Z,99.90
2019-03-23T06:00:05.298Z,99.90
2019-03-23T06:02:54.335Z,99.90
2019-03-23T06:05:31.630Z,99.90
2019-03-23T06:08:08.386Z,99.90
2019-03-23T06:16:39.070Z,99.90
2019-03-23T06:22:09.149Z,99.90
2019-03-23T06:24:51.762Z,99.90
2019-03-23T06:27:29.146Z,99.90
2019-03-23T06:30:10.109Z,99.90
2019-03-23T06:32:45.122Z,99.90
2019-03-23T06:35:21.399Z,99.90
2019-03-23T06:37:54.253Z,99.90
2019-03-23T06:40:24.768Z,99.90
2019-03-23T06:42:59.623Z,99.90
2019-03-23T06:45:26.713Z,99.90
2019-03-23T06:51:03.310Z,99.90
2019-03-23T06:53:44.399Z,99.90
2019-03-23T06:56:19.601Z,99.90
2019-03-23T06:59:03.935Z,99.90
2019-03-23T07:01:53.908Z,99.90
2019-03-23T07:04:28.863Z,99.90
2019-03-23T07:07:07.360Z,99.90
2019-03-23T07:12:54.791Z,99.90
2019-03-23T07:15:28.451Z,99.90
2019-03-23T07:18:03.859Z,99.90
2019-03-23T07:20:44.768Z,99.90
2019-03-23T07:23:22.440Z,99.90
2019-03-23T07:25:58.501Z,99.90
2019-03-23T07:28:49.123Z,99.90
2019-03-23T07:31:26.786Z,99.90
2019-03-23T07:34:10.227Z,99.90
2019-03-23T07:36:49.169Z,99.70
2019-03-23T07:39:57.036Z,98.50
2019-03-23T07:42:33.597Z,97.40
2019-03-23T07:45:20.417Z,96.10
2019-03-23T07:48:03.525Z,95.00
2019-03-23T07:50:44.609Z,94.10
2019-03-23T07:53:22.355Z,94.20
2019-03-23T07:56:16.422Z,92.50
2019-03-23T08:01:34.009Z,91.80
2019-03-23T08:04:23.532Z,91.10
2019-03-23T08:06:55.728Z,90.40
2019-03-23T08:09:37.579Z,90.40
2019-03-23T08:15:14.334Z,90.20
2019-03-23T08:17:51.715Z,87.70
2019-03-23T08:20:23.684Z,87.10
2019-03-23T08:22:57.337Z,85.20
2019-03-23T08:29:04.488Z,85.80
2019-03-23T08:31:44.965Z,85.00
2019-03-23T08:34:20.695Z,84.30
2019-03-23T08:37:02.164Z,83.90
2019-03-23T08:39:48.164Z,82.90
2019-03-23T08:42:12.073Z,79.80
2019-03-23T08:44:44.006Z,80.40
2019-03-23T08:47:15.786Z,78.50
2019-03-23T08:49:57.063Z,76.70
2019-03-23T08:52:41.447Z,76.30
2019-03-23T08:55:33.539Z,72.50
2019-03-23T08:58:16.963Z,73.60
2019-03-23T09:01:01.329Z,73.50
2019-03-23T09:03:52.336Z,72.30
2019-03-23T09:06:31.398Z,72.60
2019-03-23T09:09:20.857Z,73.30
2019-03-23T09:12:00.240Z,74.80
2019-03-23T09:17:28.901Z,74.30
2019-03-23T09:23:00.984Z,73.30
2019-03-23T09:25:46.471Z,71.60
2019-03-23T09:28:48.095Z,70.70
2019-03-23T09:34:46.715Z,66.80
2019-03-23T09:37:24.842Z,65.20
2019-03-23T09:39:58.777Z,65.10
2019-03-23T09:42:44.480Z,64.50
2019-03-23T09:45:29.744Z,65.70
2019-03-23T09:48:09.864Z,64.70
2019-03-23T09:50:43.338Z,63.30
2019-03-23T10:02:32.976Z,62.10
2019-03-23T10:05:31.440Z,61.70
2019-03-23T10:08:03.531Z,61.50
2019-03-23T10:10:47.224Z,61.00
2019-03-23T10:13:34.026Z,61.80
2019-03-23T10:16:09.585Z,62.30
2019-03-23T10:18:49.953Z,62.50
2019-03-23T10:28:03.407Z,62.90
2019-03-23T10:30:37.191Z,60.70
2019-03-23T10:33:07.140Z,60.10
2019-03-23T10:35:37.492Z,60.30
2019-03-23T10:47:18.669Z,60.00
2019-03-23T10:52:55.272Z,60.50
2019-03-23T10:55:33.893Z,60.80
2019-03-23T10:58:09.420Z,61.80
2019-03-23T11:00:43.618Z,61.00
2019-03-23T11:03:17.171Z,60.70
2019-03-23T11:05:50.528Z,60.40
2019-03-23T11:08:24.204Z,58.40
2019-03-23T11:10:56.785Z,57.90
2019-03-23T11:16:26.387Z,56.40
2019-03-23T11:19:00.286Z,57.40
2019-03-23T11:21:38.751Z,58.20
2019-03-23T11:24:14.696Z,57.50
2019-03-23T11:26:48.936Z,58.10
2019-03-23T11:29:19.047Z,57.90
2019-03-23T11:31:52.574Z,58.10
2019-03-23T11:34:24.060Z,58.60
2019-03-23T11:36:55.799Z,58.20
2019-03-23T11:39:36.557Z,57.70
2019-03-23T11:42:16.402Z,57.70
2019-03-23T11:44:50.001Z,57.40
2019-03-23T11:47:24.586Z,57.20
2019-03-23T11:50:13.044Z,56.50
2019-03-23T11:52:47.096Z,57.00
2019-03-23T11:55:19.171Z,57.70
2019-03-23T11:57:50.957Z,56.90
2019-03-23T12:07:08.498Z,54.50
2019-03-23T12:09:56.517Z,55.60
2019-03-23T12:12:33.315Z,56.50
2019-03-23T12:15:06.868Z,56.30
2019-03-23T12:17:49.199Z,56.30
2019-03-23T12:20:19.587Z,56.10
2019-03-23T12:22:58.583Z,57.30
2019-03-23T12:25:36.512Z,58.00
2019-03-23T12:28:17.237Z,58.10
2019-03-23T12:30:51.691Z,57.90
2019-03-23T12:37:40.837Z,57.30
2019-03-23T12:39:55.840Z,58.00
2019-03-23T12:42:36.301Z,57.80
2019-03-23T12:45:18.998Z,57.50
2019-03-23T12:47:53.505Z,57.20
2019-03-23T12:50:32.510Z,57.30
2019-03-23T12:53:03.455Z,56.20
2019-03-23T12:55:40.217Z,55.90
2019-03-23T12:58:17.122Z,55.60
2019-03-23T13:00:49.270Z,57.90
2019-03-23T13:03:22.929Z,58.80
2019-03-23T13:05:54.743Z,59.70
2019-03-23T13:08:32.633Z,60.20
2019-03-23T13:11:03.465Z,60.50
2019-03-23T13:13:33.889Z,60.80
2019-03-23T13:16:06.739Z,61.50
2019-03-23T13:18:39.868Z,61.10
2019-03-23T13:21:21.408Z,61.50
2019-03-23T13:23:53.571Z,62.00
2019-03-23T13:26:34.446Z,61.20
2019-03-23T13:29:10.395Z,60.50
2019-03-23T13:31:44.556Z,60.70
2019-03-23T13:34:16.197Z,62.50
2019-03-23T13:36:50.342Z,63.30
2019-03-23T13:42:30.709Z,63.40
2019-03-23T13:51:10.057Z,62.10
2019-03-23T13:56:38.540Z,62.30
2019-03-23T13:59:14.138Z,62.50
2019-03-23T14:04:46.129Z,64.80
2019-03-23T14:07:17.002Z,65.90
2019-03-23T14:09:52.985Z,67.90
2019-03-23T14:12:24.419Z,68.80
2019-03-23T14:15:15.926Z,70.30
2019-03-23T14:18:05.116Z,71.60
2019-03-23T14:20:46.604Z,73.30
2019-03-23T14:23:23.009Z,74.10
2019-03-23T14:25:59.622Z,74.70
2019-03-23T14:28:31.425Z,75.10
2019-03-23T14:31:08.626Z,76.00
2019-03-23T14:33:40.736Z,77.20
2019-03-23T14:36:13.971Z,78.50
2019-03-23T14:38:49.618Z,79.80
2019-03-23T14:41:23.247Z,80.70
2019-03-23T14:43:59.276Z,83.20
2019-03-23T14:46:37.906Z,85.10
2019-03-23T14:52:14.034Z,89.30
2019-03-23T14:54:59.630Z,90.50
2019-03-23T15:03:30.850Z,92.60
2019-03-23T15:06:24.207Z,92.60
2019-03-23T15:09:05.019Z,92.60
2019-03-23T15:11:46.355Z,92.20
2019-03-23T15:17:11.990Z,92.40
2019-03-23T15:19:47.351Z,92.20
2019-03-23T15:22:22.868Z,91.90
2019-03-23T15:28:17.686Z,91.50
2019-03-23T15:31:05.414Z,90.90
2019-03-23T15:34:09.863Z,90.50
2019-03-23T15:40:29.976Z,89.50
2019-03-23T15:43:18.944Z,88.00
2019-03-23T15:46:01.369Z,85.00
2019-03-23T15:48:53.786Z,84.60
2019-03-23T15:51:31.462Z,84.50
2019-03-23T15:54:13.686Z,85.00
2019-03-23T15:56:55.084Z,86.10
2019-03-23T15:59:46.451Z,86.80
2019-03-23T16:11:55.591Z,88.60
2019-03-23T16:14:39.195Z,89.30
2019-03-23T16:17:22.293Z,90.10
2019-03-23T16:20:07.225Z,90.50
2019-03-23T16:22:44.019Z,91.10
2019-03-23T16:28:15.668Z,92.20
2019-03-23T16:31:02.785Z,92.60
2019-03-23T16:33:42.010Z,93.00
2019-03-23T16:36:19.646Z,92.90
2019-03-23T16:38:49.776Z,93.10
2019-03-23T16:41:22.617Z,93.40
2019-03-23T16:43:59.907Z,93.70
2019-03-23T16:46:40.191Z,94.20
2019-03-23T16:49:14.569Z,94.50
2019-03-23T16:51:47.865Z,94.80
2019-03-23T16:54:33.017Z,95.20
2019-03-23T16:57:17.246Z,95.40
2019-03-23T16:59:53.072Z,95.50
2019-03-23T17:02:24.129Z,95.60
2019-03-23T17:04:58.219Z,95.80
2019-03-23T17:07:37.759Z,96.00
2019-03-23T17:10:15.860Z,96.30
2019-03-23T17:12:55.912Z,96.60
2019-03-23T17:15:34.665Z,97.00
2019-03-23T17:18:15.361Z,97.30
2019-03-23T17:20:56.713Z,97.60
2019-03-23T17:23:39.019Z,97.90
2019-03-23T17:26:30.305Z,98.10
2019-03-23T17:29:21.440Z,98.40
2019-03-23T17:35:04.004Z,99.00
2019-03-23T17:37:39.284Z,99.30
2019-03-23T17:43:05.371Z,99.40
2019-03-23T17:45:30.183Z,99.70
2019-03-23T17:48:07.191Z,99.90
2019-03-23T17:50:42.974Z,99.90
2019-03-23T17:53:40.686Z,99.90
2019-03-23T17:56:26.336Z,99.90
2019-03-23T18:05:13.084Z,99.90
2019-03-23T18:10:52.169Z,99.90
2019-03-23T18:13:28.631Z,99.90
2019-03-23T18:24:08.380Z,99.90
2019-03-23T18:25:24.902Z,99.90
2019-03-23T18:31:01.346Z,99.90
2019-03-23T18:39:41.885Z,99.90
2019-03-23T18:42:21.652Z,99.90
2019-03-23T18:45:22.871Z,99.90
2019-03-23T18:48:20.098Z,99.90
2019-03-23T18:56:43.107Z,99.90
2019-03-23T18:59:19.512Z,99.90
2019-03-23T19:18:13.366Z,99.90
2019-03-23T19:29:41.596Z,99.90
2019-03-23T19:32:28.918Z,99.90
2019-03-23T19:37:56.806Z,99.90
2019-03-23T19:43:36.985Z,99.90
2019-03-23T19:57:48.146Z,99.90
2019-03-23T20:00:27.815Z,99.90
2019-03-23T20:03:08.482Z,99.90
2019-03-23T20:08:46.618Z,99.90
2019-03-23T20:14:42.869Z,99.70
2019-03-23T20:26:30.156Z,99.10
2019-03-23T20:29:16.212Z,98.90
2019-03-23T20:31:55.728Z,98.30
2019-03-23T20:37:38.961Z,97.50
2019-03-23T20:43:28.508Z,96.50
2019-03-23T20:46:13.884Z,96.30
2019-03-23T20:48:51.979Z,95.60
2019-03-23T20:54:24.415Z,94.50
2019-03-23T20:57:36.685Z,94.20
2019-03-23T21:00:26.528Z,93.70
2019-03-23T21:06:06.847Z,93.00
2019-03-23T21:09:00.914Z,93.20
2019-03-23T21:11:41.839Z,92.80
2019-03-23T21:14:24.704Z,92.70
2019-03-23T21:17:10.449Z,92.70
2019-03-23T21:22:50.321Z,92.40
2019-03-23T21:28:40.317Z,92.30
2019-03-23T21:38:23.400Z,91.50
2019-03-23T21:43:42.834Z,91.10
2019-03-23T21:52:00.969Z,90.90
2019-03-23T21:54:51.665Z,91.10
2019-03-23T22:04:06.308Z,91.00
2019-03-23T22:09:57.612Z,90.90
2019-03-23T22:12:42.581Z,90.90
2019-03-23T22:15:16.026Z,90.90
2019-03-23T22:20:59.627Z,91.10
2019-03-23T22:23:53.054Z,91.00
2019-03-23T22:26:39.784Z,91.00
2019-03-23T22:29:38.084Z,91.20
2019-03-23T22:35:04.487Z,91.30
2019-03-23T22:40:50.978Z,91.20
2019-03-23T22:46:41.198Z,91.30
2019-03-23T22:58:23.718Z,91.30
2019-03-23T23:01:06.421Z,91.30
2019-03-23T23:09:52.435Z,91.70
2019-03-23T23:12:27.895Z,91.70
2019-03-23T23:15:13.456Z,91.70
2019-03-23T23:17:47.387Z,91.70
2019-03-23T23:20:28.844Z,91.90
2019-03-23T23:23:11.524Z,92.00
2019-03-23T23:25:46.521Z,92.10
2019-03-23T23:28:26.996Z,92.30
2019-03-23T23:31:07.028Z,92.40
2019-03-23T23:33:57.484Z,92.60
2019-03-23T23:36:49.002Z,92.70
2019-03-23T23:45:40.088Z,92.60
2019-03-23T23:48:50.944Z,92.60
2019-03-23T23:58:02.953Z,92.80
